地図

経路データ

SID SEASON NUMBER BASIN SUBBASIN NAME ISO_TIME NATURE LAT LON WMO_WIND WMO_PRES WMO_AGENCY TRACK_TYPE DIST2LAND LANDFALL IFLAG USA_AGENCY USA_ATCF_ID USA_LAT USA_LON USA_RECORD USA_STATUS USA_WIND USA_PRES USA_SSHS USA_R34_NE USA_R34_SE USA_R34_SW USA_R34_NW USA_R50_NE USA_R50_SE USA_R50_SW USA_R50_NW USA_R64_NE USA_R64_SE USA_R64_SW USA_R64_NW USA_POCI USA_ROCI USA_RMW USA_EYE TOKYO_LAT TOKYO_LON TOKYO_GRADE TOKYO_WIND TOKYO_PRES TOKYO_R50_DIR TOKYO_R50_LONG TOKYO_R50_SHORT TOKYO_R30_DIR TOKYO_R30_LONG TOKYO_R30_SHORT TOKYO_LAND CMA_LAT CMA_LON CMA_CAT CMA_WIND CMA_PRES HKO_LAT HKO_LON HKO_CAT HKO_WIND HKO_PRES NEWDELHI_LAT NEWDELHI_LON NEWDELHI_GRADE NEWDELHI_WIND NEWDELHI_PRES NEWDELHI_CI NEWDELHI_DP NEWDELHI_POCI REUNION_LAT REUNION_LON REUNION_TYPE REUNION_WIND REUNION_PRES REUNION_TNUM REUNION_CI REUNION_RMW REUNION_R34_NE REUNION_R34_SE REUNION_R34_SW REUNION_R34_NW REUNION_R50_NE REUNION_R50_SE REUNION_R50_SW REUNION_R50_NW REUNION_R64_NE REUNION_R64_SE REUNION_R64_SW REUNION_R64_NW BOM_LAT BOM_LON BOM_TYPE BOM_WIND BOM_PRES BOM_TNUM BOM_CI BOM_RMW BOM_R34_NE BOM_R34_SE BOM_R34_SW BOM_R34_NW BOM_R50_NE BOM_R50_SE BOM_R50_SW BOM_R50_NW BOM_R64_NE BOM_R64_SE BOM_R64_SW BOM_R64_NW BOM_ROCI BOM_POCI BOM_EYE BOM_POS_METHOD BOM_PRES_METHOD NADI_LAT NADI_LON NADI_CAT NADI_WIND NADI_PRES WELLINGTON_LAT WELLINGTON_LON WELLINGTON_WIND WELLINGTON_PRES DS824_LAT DS824_LON DS824_STAGE DS824_WIND DS824_PRES TD9636_LAT TD9636_LON TD9636_STAGE TD9636_WIND TD9636_PRES TD9635_LAT TD9635_LON TD9635_WIND TD9635_PRES TD9635_ROCI NEUMANN_LAT NEUMANN_LON NEUMANN_CLASS NEUMANN_WIND NEUMANN_PRES MLC_LAT MLC_LON MLC_CLASS MLC_WIND MLC_PRES USA_GUST BOM_GUST BOM_GUST_PER REUNION_GUST REUNION_GUST_PER USA_SEAHGT USA_SEARAD_NE USA_SEARAD_SE USA_SEARAD_SW USA_SEARAD_NW STORM_SPEED STORM_DIR
1959075S14107 1959 28 SI WA NOT_NAMED 1959-03-16 01:00:00 NR -14.0000 107.000 1004 bom main 710 693 ______O_______ -1 -14.0000 107.000 1004 13 297
1959075S14107 1959 28 SI WA NOT_NAMED 1959-03-16 03:00:00 NR -13.8057 106.606 main 695 675 ______P_______ -1 -13.8057 106.606 13 297
1959075S14107 1959 28 SI WA NOT_NAMED 1959-03-16 06:00:00 NR -13.5310 106.038 main 678 666 ______P_______ -1 -13.5310 106.038 12 296
1959075S14107 1959 28 SI WA NOT_NAMED 1959-03-16 09:00:00 NR -13.3014 105.524 main 668 654 ______P_______ -1 -13.3014 105.524 10 293
1959075S14107 1959 28 SI WA NOT_NAMED 1959-03-16 12:00:00 NR -13.1450 105.097 main 654 654 ______P_______ -1 -13.1450 105.097 8 286
1959075S14107 1959 28 SI WA NOT_NAMED 1959-03-16 15:00:00 NR -13.0899 104.786 main 662 662 ______P_______ -1 -13.0899 104.786 5 268
1959075S14107 1959 28 SI WA NOT_NAMED 1959-03-16 18:00:00 NR -13.1644 104.623 main 678 678 ______P_______ -1 -13.1644 104.623 3 205
1959075S14107 1959 28 SI WA NOT_NAMED 1959-03-16 21:00:00 NR -13.3967 104.641 main 700 697 ______P_______ -1 -13.3967 104.641 9 135
1959075S14107 1959 28 SI WA NOT_NAMED 1959-03-16 23:00:00 NR -13.7024 105.175 main 717 715 ______P___O___ -1 -13.6530 104.768 -13.9000 106.800 1 24 120
1959075S14107 1959 28 SI WA NOT_NAMED 1959-03-17 00:00:00 TS -13.9958 105.714 main 741 738 O_____P__OP___ jtwc_sh SH271959 -14.2000 106.700 -1 -13.8146 104.870 -14.0000 105.100 TC 20 1004 -14.1517 106.720 1 28 127
1959075S14107 1959 28 SI WA NOT_NAMED 1959-03-17 01:00:00 TS -14.2663 105.943 1004 bom main 767 764 P_____O__PP___ SH271959 -14.4599 106.583 -1 -14.0000 105.000 1004 -14.2071 105.497 TC -14.4025 106.645 1 18 151
1959075S14107 1959 28 SI WA NOT_NAMED 1959-03-17 03:00:00 TS -14.7671 106.156 main 814 814 P_____P__PP___ SH271959 -14.9729 106.383 -1 -14.4394 105.342 -14.6170 106.293 TC -14.8988 106.524 1 16 156
1959075S14107 1959 28 SI WA NOT_NAMED 1959-03-17 06:00:00 TS -15.4889 106.520 main 884 884 O_____P__PP___ jtwc_sh SH271959 -15.7000 106.300 -1 -15.2161 106.033 -15.2103 107.480 TC -15.6182 106.485 1 17 147
1959075S14107 1959 28 SI WA NOT_NAMED 1959-03-17 09:00:00 TS -16.1558 107.106 main 951 895 P_____P__PP___ SH271959 -16.3442 106.640 -1 -16.0413 106.885 -15.7598 108.640 TC -16.2896 106.725 1 18 135
1959075S14107 1959 28 SI WA NOT_NAMED 1959-03-17 11:00:00 TS -16.5616 107.642 main 895 856 P_____P__PO___ SH271959 -16.7244 107.103 -1 -16.5667 107.515 -16.0923 109.390 TC -16.7000 107.100 1 20 126
1959075S14107 1959 28 SI WA NOT_NAMED 1959-03-17 12:00:00 TS -16.7496 107.952 main 856 734 O_____P__PP___ jtwc_sh SH271959 -16.9000 107.400 -1 -16.8106 107.840 -16.2463 109.755 TC -16.8912 107.364 1 22 119
1959075S14107 1959 28 SI WA NOT_NAMED 1959-03-17 15:00:00 TS -17.2764 109.013 main 734 719 P_____P__PP___ SH271959 -17.4633 108.508 -1 -17.4209 108.835 -16.6506 110.805 TC -17.3841 108.409 1 23 117
1959075S14107 1959 28 SI WA NOT_NAMED 1959-03-17 15:30:00 TS -17.3485 109.205 bom main 719 623 P_____O__PP___ SH271959 -17.5412 108.720 -1 -17.5000 109.000 -16.7088 110.973 TC -17.4513 108.611 1 23 107
1959075S14107 1959 28 SI WA NOT_NAMED 1959-03-17 18:00:00 TS -17.6199 110.170 main 623 548 O_____P__PP___ jtwc_sh SH271959 -17.8000 109.800 -1 -17.8386 109.793 -16.9548 111.771 TC -17.7060 109.686 1 22 101
1959075S14107 1959 28 SI WA NOT_NAMED 1959-03-17 21:00:00 TS -17.7268 111.271 main 548 514 P_____P__PP___ SH271959 -17.8145 110.980 -1 -18.0678 110.761 -17.1410 112.631 TC -17.7963 111.000 1 20 91
1959075S14107 1959 28 SI WA NOT_NAMED 1959-03-17 23:00:00 TS -17.6521 111.961 main 514 512 P_____P__PO___ SH271959 -17.6383 111.736 -1 -18.0926 111.394 -17.1911 113.137 TC -17.7000 111.800 1 20 81
1959075S14107 1959 28 SI WA NOT_NAMED 1959-03-18 00:00:00 TS -17.5714 112.287 main 512 512 O_____P__PP___ jtwc_sh SH271959 -17.5000 112.100 -1 -18.0618 111.701 -17.1920 113.368 TC -17.6033 112.164 1 20 74
1959075S14107 1959 28 SI WA NOT_NAMED 1959-03-18 01:00:00 TS -17.4676 112.616 1004 bom main 513 513 P_____O__PP___ SH271959 -17.3457 112.490 -1 -18.0000 112.000 1004 -17.1760 113.582 TC -17.4706 112.518 1 20 67
1959075S14107 1959 28 SI WA NOT_NAMED 1959-03-18 03:00:00 TS -17.1771 113.257 main 513 511 P_____P__PP___ SH271959 -16.9403 113.236 -1 -17.8019 112.673 -17.0908 113.961 TC -17.1123 113.180 1 20 57
1959075S14107 1959 28 SI WA NOT_NAMED 1959-03-18 06:00:00 TS -16.5808 114.047 main 530 528 O_____P__PP___ jtwc_sh SH271959 -16.2000 114.100 -1 -17.2841 113.636 -16.8203 114.392 TC -16.3998 114.004 1 18 44
1959075S14107 1959 28 SI WA NOT_NAMED 1959-03-18 09:00:00 TS -15.8938 114.547 main 574 570 P_____P__PP___ SH271959 -15.4791 114.560 -1 -16.5789 114.428 -16.3627 114.644 TC -15.5688 114.543 1 16 27
1959075S14107 1959 28 SI WA NOT_NAMED 1959-03-18 11:00:00 TS -15.3852 114.693 main 619 629 P_____P__PO___ SH271959 -14.9663 114.630 -1 -16.0483 114.799 -15.9449 114.704 TC -15.0000 114.700 1 16 11
1959075S14107 1959 28 SI WA NOT_NAMED 1959-03-18 12:00:00 TS -15.1101 114.706 main 650 650 O_____P__OP___ jtwc_sh SH271959 -14.7000 114.600 -1 -15.7748 114.923 -15.7000 114.700 TC -14.6759 114.708 1 17 0
1959075S14107 1959 28 SI WA NOT_NAMED 1959-03-18 13:00:00 TS -14.8198 114.689 bom main 672 604 P_____O__PP___ SH271959 -14.4149 114.551 -1 -15.5000 115.000 -15.4314 114.673 TC -14.3376 114.669 1 19 350
1959075S14107 1959 28 SI WA NOT_NAMED 1959-03-18 15:00:00 TS -14.1975 114.549 main 604 505 P_____P__PP___ SH271959 -13.8275 114.327 -1 -14.8384 115.065 -14.8442 114.555 TC -13.6500 114.473 1 20 341
1959075S14107 1959 28 SI WA NOT_NAMED 1959-03-18 18:00:00 TS -13.2877 114.134 main 506 428 O_____P__PP___ jtwc_sh SH271959 -13.0000 113.800 -1 -13.7997 114.865 -13.9310 114.254 TC -12.7080 113.953 1 20 332
1959075S14107 1959 28 SI WA NOT_NAMED 1959-03-18 21:00:00 TS -12.4850 113.594 main 428 406 P_____P__PP___ SH271959 -12.1674 113.251 -1 -12.9011 114.341 -13.1273 113.852 TC -12.0617 113.276 1 18 320
1959075S14107 1959 28 SI WA NOT_NAMED 1959-03-18 23:00:00 TS -12.1599 113.167 main 408 399 P_____P__PO___ SH271959 -11.8384 112.827 -1 -12.4882 113.830 -12.7347 113.553 TC -11.9000 112.800 1 15 301
1959075S14107 1959 28 SI WA NOT_NAMED 1959-03-19 00:00:00 TS -12.1019 112.943 main 404 404 O_____P__OP___ jtwc_sh SH271959 -11.8000 112.600 -1 -12.3620 113.529 -12.6000 113.400 TC 20 1004 -11.9474 112.587 1 14 274
1959075S14107 1959 28 SI WA NOT_NAMED 1959-03-19 01:00:00 TS -12.1311 112.708 1004 bom main 410 410 P_____O__PP___ SH271959 -11.8588 112.355 -1 -12.3000 113.200 1004 -12.5810 113.270 TC -12.0568 112.363 1 16 249
1959075S14107 1959 28 SI WA NOT_NAMED 1959-03-19 03:00:00 TS -12.3868 112.194 main 451 450 P_____P__PP___ SH271959 -12.2304 111.836 -1 -12.3468 112.407 -12.6900 112.995 TC -12.4366 111.897 1 19 231
1959075S14107 1959 28 SI WA NOT_NAMED 1959-03-19 06:00:00 TS -13.1332 111.420 main 527 538 O_____P__PP___ jtwc_sh SH271959 -13.2000 111.100 -1 -12.7773 111.157 -13.1724 112.551 TC -13.3164 111.193 1 22 223
1959075S14107 1959 28 SI WA NOT_NAMED 1959-03-19 07:00:00 TS -13.4296 111.189 bom main 562 562 P_____O__PP___ SH271959 -13.5376 110.889 -1 -13.0000 110.800 -13.4053 112.396 TC -13.6677 110.969 1 23 212
1959075S14107 1959 28 SI WA NOT_NAMED 1959-03-19 09:00:00 TS -14.1048 110.807 main 645 656 P_____P__PP___ SH271959 -14.3100 110.518 -1 -13.5231 110.370 -13.9601 112.077 TC -14.4207 110.552 1 24 205
1959075S14107 1959 28 SI WA NOT_NAMED 1959-03-19 11:00:00 TS -14.8677 110.505 main 739 739 P_____P__PO___ SH271959 -15.1624 110.219 -1 -14.2023 110.136 -14.6116 111.749 TC -15.2000 110.200 1 25 199
1959075S14107 1959 28 SI WA NOT_NAMED 1959-03-19 12:00:00 TS -15.2644 110.386 main 785 729 O_____P__PP___ jtwc_sh SH271959 -15.6000 110.100 -1 -14.5867 110.075 -14.9655 111.582 TC -15.5697 110.071 1 26 193
1959075S14107 1959 28 SI WA NOT_NAMED 1959-03-19 15:00:00 TS -16.5289 110.120 main 729 627 P_____P__PP___ SH271959 -16.9672 109.854 -1 -15.8522 110.032 -16.1007 111.076 TC -16.7571 109.784 1 26 190
1959075S14107 1959 28 SI WA NOT_NAMED 1959-03-19 18:00:00 TS -17.7601 109.925 main 627 580 O_____P__PP___ jtwc_sh SH271959 -18.2000 109.700 -1 -17.1686 110.050 -17.2769 110.569 TC -17.9551 109.605 1 24 190
1959075S14107 1959 28 SI WA NOT_NAMED 1959-03-19 20:00:00 TS -18.4806 109.773 bom main 580 566 P_____O__PP___ SH271959 -18.8357 109.556 -1 -18.0000 110.000 -18.0403 110.236 TC -18.6915 109.519 1 22 192
1959075S14107 1959 28 SI WA NOT_NAMED 1959-03-19 21:00:00 TS -18.8053 109.681 main 566 545 P_____P__PP___ SH271959 -19.0999 109.485 -1 -18.3955 109.882 -18.4059 110.072 TC -19.0256 109.480 1 19 196
1959075S14107 1959 28 SI WA NOT_NAMED 1959-03-19 23:00:00 TS -19.3806 109.503 main 545 539 P_____P__PO___ SH271959 -19.5302 109.355 -1 -19.1537 109.652 -19.0890 109.754 TC -19.6000 109.400 2 17 197
1959075S14107 1959 28 SI WA NOT_NAMED 1959-03-20 00:00:00 TS -19.6198 109.421 main 542 532 O_____P__OP___ jtwc_sh SH271959 -19.7000 109.300 -1 -19.4959 109.561 -19.4000 109.600 TC 60 980 -19.8032 109.346 2 14 197
1959075S14107 1959 28 SI WA NOT_NAMED 1959-03-20 01:00:00 TS -19.8142 109.356 980 bom main 532 525 P_____O__PP___ SH271959 -19.8539 109.263 -1 -19.8000 109.500 980 -19.5893 109.462 TC -19.9738 109.295 2 11 197
1959075S14107 1959 28 SI WA NOT_NAMED 1959-03-20 03:00:00 TS -20.1229 109.259 main 525 525 P_____P__PP___ SH271959 -20.0749 109.207 -1 -20.2959 109.492 990 -19.9368 109.193 TC -20.2319 109.195 2 9 198
1959075S14107 1959 28 SI WA NOT_NAMED 1959-03-20 04:00:00 TS -20.2472 109.213 995 bom main 528 517 P_____O__PP___ SH271959 -20.1567 109.179 -1 -20.5000 109.500 995 -20.0959 109.063 TC -20.3268 109.144 2 8 204
1959075S14107 1959 28 SI WA NOT_NAMED 1959-03-20 06:00:00 TS -20.4672 109.094 main 521 520 O_____P__PP___ jtwc_sh SH271959 -20.3000 109.100 -1 -20.8823 109.424 -20.3868 108.809 TC -20.4669 109.039 2 7 213
1959075S14107 1959 28 SI WA NOT_NAMED 1959-03-20 09:00:00 TS -20.7600 108.851 main 525 535 P_____P__PP___ SH271959 -20.5575 108.887 -1 -21.3150 109.185 -20.7615 108.444 TC -20.6084 108.853 2 7 222
1959075S14107 1959 28 SI WA NOT_NAMED 1959-03-20 11:00:00 TS -20.9273 108.654 main 540 546 P_____P__PO___ SH271959 -20.7193 108.703 -1 -21.5231 108.957 -20.9751 108.209 TC -20.7000 108.700 2 8 228
1959075S14107 1959 28 SI WA NOT_NAMED 1959-03-20 12:00:00 TS -21.0141 108.545 main 555 552 O_____P__PP___ jtwc_sh SH271959 -20.8000 108.600 -1 -21.6065 108.826 -21.0723 108.094 TC -20.7917 108.607 2 8 232
1959075S14107 1959 28 SI WA NOT_NAMED 1959-03-20 15:00:00 TS -21.2593 108.191 main 575 575 P_____P__PP___ SH271959 -21.0575 108.265 -1 -21.7878 108.380 -21.3304 107.759 TC -21.0632 108.289 2 8 236
1959075S14107 1959 28 SI WA NOT_NAMED 1959-03-20 18:00:00 TS -21.4718 107.809 main 610 610 O_____P__PP___ jtwc_sh SH271959 -21.3000 107.900 -1 -21.8902 107.881 -21.5470 107.433 TC -21.3220 107.930 2 8 241
1959075S14107 1959 28 SI WA NOT_NAMED 1959-03-20 21:00:00 TS -21.6534 107.426 main 646 646 P_____P__PP___ SH271959 -21.5149 107.550 -1 -21.9452 107.363 -21.7332 107.115 TC -21.5589 107.552 2 8 244
1959075S14107 1959 28 SI WA NOT_NAMED 1959-03-20 23:00:00 TS -21.7601 107.172 main 664 664 P_____P__PO___ SH271959 -21.6416 107.317 -1 -21.9712 107.023 -21.8459 106.905 TC -21.7000 107.300 1 8 246
1959075S14107 1959 28 SI WA NOT_NAMED 1959-03-21 00:00:00 TS -21.8096 107.050 main 685 685 O_____P__OP___ jtwc_sh SH271959 -21.7000 107.200 -1 -21.9847 106.859 -21.9000 106.800 TC 30 1000 -21.7632 107.189 1 7 247
1959075S14107 1959 28 SI WA NOT_NAMED 1959-03-21 01:00:00 TS -21.8574 106.928 1000 bom main 693 693 P_____O__PP___ SH271959 -21.7557 107.083 -1 -22.0000 106.700 1000 -21.9531 106.695 TC -21.8224 107.079 1 7 247
1959075S14107 1959 28 SI WA NOT_NAMED 1959-03-21 03:00:00 TS -21.9484 106.689 main 714 712 P_____P__PP___ SH271959 -21.8574 106.850 -1 -22.0393 106.401 -22.0567 106.487 TC -21.9309 106.860 1 7 248
1959075S14107 1959 28 SI WA NOT_NAMED 1959-03-21 06:00:00 TS -22.0802 106.338 main 752 752 O_____P__PP___ jtwc_sh SH271959 -22.0000 106.500 -1 -22.1193 105.996 -22.2061 106.174 TC -22.0756 106.522 1 7 247
1959075S14107 1959 28 SI WA NOT_NAMED 1959-03-21 09:00:00 TS -22.2160 105.998 main 782 782 P_____P__PP___ SH271959 -22.1498 106.165 -1 -22.2215 105.638 -22.3489 105.861 TC -22.2100 106.161 1 7 247
1959075S14107 1959 28 SI WA NOT_NAMED 1959-03-21 11:00:00 TS -22.3082 105.766 main 801 811 P_____P__PO___ SH271959 -22.2499 105.928 -1 -22.3004 105.421 -22.4410 105.653 TC -22.3000 105.900 1 7 247
1959075S14107 1959 28 SI WA NOT_NAMED 1959-03-21 12:00:00 TS -22.3612 105.629 main 821 821 O_____P__PP___ jtwc_sh SH271959 -22.3000 105.800 -1 -22.3427 105.318 -22.4862 105.549 TC -22.3464 105.761 1 8 248
1959075S14107 1959 28 SI WA NOT_NAMED 1959-03-21 15:00:00 TS -22.5100 105.239 main 862 862 P_____P__PP___ SH271959 -22.4504 105.370 -1 -22.4793 105.030 -22.6191 105.237 TC -22.4914 105.317 1 8 247
1959075S14107 1959 28 SI WA NOT_NAMED 1959-03-21 18:00:00 TS -22.6640 104.852 main 886 896 O_____P__PP___ jtwc_sh SH271959 -22.6000 104.900 -1 -22.6277 104.765 -22.7483 104.925 TC -22.6425 104.839 1 7 245
1959075S14107 1959 28 SI WA NOT_NAMED 1959-03-21 21:00:00 TS -22.8174 104.510 main 923 923 ______P__PP___ SH271959 -1 -22.7845 104.518 -22.8750 104.613 TC -22.7968 104.339 1 7 243
1959075S14107 1959 28 SI WA NOT_NAMED 1959-03-21 23:00:00 TS -22.9154 104.314 main 941 938 ______P__PO___ SH271959 -1 -22.8918 104.358 -22.9584 104.404 TC -22.9000 104.000 2 5 235
1959075S14107 1959 28 SI WA NOT_NAMED 1959-03-22 00:00:00 TS -22.9639 104.286 main 938 938 ______P__O____ -1 -22.9458 104.279 -23.0000 104.300 TC 15 1008 2 4 232
1959075S14107 1959 28 SI WA NOT_NAMED 1959-03-22 01:00:00 NR -23.0000 104.200 1008 bom main 949 ______O_______ -1 -23.0000 104.200 1008 TC 2 5 246

IBTrACS Databaseについて

本データベースは、米国NOAAが公開する1842年以降の世界の熱帯低気圧のベストトラックデータアーカイブInternational Best Track Archive for Climate Stewardship (IBTrACS)を、ウェブで閲覧しやすい形式に変換したものです。

最終更新日:2021-10-19